This is the latest recevied weather packets stored in our database for station/object WE8M. If no packets are shown the sender has not sent any weather packets the latest 10 day(s).
| Time | Temp. | Humidity | Pressure | Rain* | Wind** | Luminosity | Snow |
|---|---|---|---|---|---|---|---|
| 1777566913 | 11.11° C | 62% | 1016.8 hPa | 0 mm | - | - | - |
| 1777565093 | 10.56° C | 64% | 1017 hPa | 0 mm | - | - | - |
| 1777564186 | 9.44° C | 70% | 1016.9 hPa | 0 mm | - | - | - |
| 1777563883 | 10° C | 71% | 1016.9 hPa | 0 mm | - | - | - |
| 1777563579 | 11.11° C | 64% | 1016.9 hPa | 0 mm | - | - | - |
| 1777563278 | 10.56° C | 69% | 1016.8 hPa | 0 mm | - | - | - |
| 1777562671 | 9.44° C | 69% | 1016.8 hPa | 0 mm | - | - | - |
| 1777562061 | 8.89° C | 72% | 1016.9 hPa | 0 mm | - | - | - |
| 1777561759 | 8.89° C | 72% | 1016.6 hPa | 0 mm | - | - | - |
| 1777560241 | 8.33° C | 74% | 1016.7 hPa | 0 mm | - | - | - |
| 1777559637 | 7.78° C | 77% | 1016.5 hPa | 0 mm | - | - | - |
| 1777558727 | 7.78° C | 78% | 1016.7 hPa | 0 mm | - | - | - |
| 1777558423 | 7.78° C | 76% | 1016.6 hPa | 0 mm | - | - | - |
| 1777555998 | 7.22° C | 81% | 1016 hPa | 0 mm | - | - | - |
| 1777555395 | 6.67° C | 80% | 1016.1 hPa | 0 mm | - | - | - |
| 1777554789 | 6.67° C | 80% | 1016 hPa | 0 mm | - | - | - |
| 1777554486 | 6.67° C | 79% | 1015.6 hPa | 0 mm | - | - | - |
| 1777552359 | 6.67° C | 79% | 1015.4 hPa | 0 mm | - | - | - |
| 1777551753 | 7.22° C | 76% | 1015.2 hPa | 0 mm | - | - | - |
| 1777551450 | 7.22° C | 76% | 1015.1 hPa | 0 mm | - | - | - |
| 1777549933 | 6.11° C | 82% | 1015 hPa | 0 mm | - | - | - |
| 1777547808 | 5.56° C | 83% | 1014.2 hPa | 0 mm | - | - | - |
| 1777547203 | 5.56° C | 84% | 1014 hPa | 0 mm | - | - | - |
| 1777545991 | 5.56° C | 85% | 1013.9 hPa | 0 mm | - | - | - |
| 1777545686 | 5.56° C | 85% | 1014 hPa | 0 mm | - | - | - |
* Rain latest hour (hover to see other rain measurements)
** Current wind speed in m/s (hover to see current wind gust speed)